sensor_id;sensor_type;location;lat;lon;timestamp;P1;durP1;ratioP1;P2;durP2;ratioP2
40745;SDS011;26454;51.164;4.488;2022-12-19T00:01:28;67.18;;;33.72;;
40745;SDS011;26454;51.164;4.488;2022-12-19T00:03:59;69.00;;;33.47;;
40745;SDS011;26454;51.164;4.488;2022-12-19T00:06:26;62.35;;;32.00;;
40745;SDS011;26454;51.164;4.488;2022-12-19T00:08:53;66.35;;;33.15;;
40745;SDS011;26454;51.164;4.488;2022-12-19T00:11:22;61.88;;;32.90;;
40745;SDS011;26454;51.164;4.488;2022-12-19T00:13:49;59.38;;;33.38;;
40745;SDS011;26454;51.164;4.488;2022-12-19T00:16:17;54.65;;;29.55;;
40745;SDS011;26454;51.164;4.488;2022-12-19T00:18:44;58.67;;;29.60;;
40745;SDS011;26454;51.164;4.488;2022-12-19T00:21:11;52.00;;;29.08;;
40745;SDS011;26454;51.164;4.488;2022-12-19T00:23:38;49.22;;;26.77;;
40745;SDS011;26454;51.164;4.488;2022-12-19T00:28:36;53.05;;;28.58;;
40745;SDS011;26454;51.164;4.488;2022-12-19T00:31:02;61.55;;;29.85;;
40745;SDS011;26454;51.164;4.488;2022-12-19T00:33:29;45.70;;;26.23;;
40745;SDS011;26454;51.164;4.488;2022-12-19T00:35:59;46.70;;;28.42;;
40745;SDS011;26454;51.164;4.488;2022-12-19T00:38:25;52.88;;;28.58;;
40745;SDS011;26454;51.164;4.488;2022-12-19T00:40:51;50.55;;;28.60;;
40745;SDS011;26454;51.164;4.488;2022-12-19T00:43:17;49.60;;;26.33;;
40745;SDS011;26454;51.164;4.488;2022-12-19T00:45:43;51.20;;;28.77;;
40745;SDS011;26454;51.164;4.488;2022-12-19T00:48:09;46.47;;;27.85;;
40745;SDS011;26454;51.164;4.488;2022-12-19T00:50:35;47.75;;;26.30;;
40745;SDS011;26454;51.164;4.488;2022-12-19T00:53:01;62.60;;;29.70;;
40745;SDS011;26454;51.164;4.488;2022-12-19T00:55:27;51.53;;;27.25;;
40745;SDS011;26454;51.164;4.488;2022-12-19T00:57:53;52.03;;;27.58;;
40745;SDS011;26454;51.164;4.488;2022-12-19T01:00:19;56.15;;;29.10;;
40745;SDS011;26454;51.164;4.488;2022-12-19T01:02:45;53.80;;;30.83;;
40745;SDS011;26454;51.164;4.488;2022-12-19T01:05:11;56.22;;;29.92;;
40745;SDS011;26454;51.164;4.488;2022-12-19T01:07:37;60.55;;;29.92;;
40745;SDS011;26454;51.164;4.488;2022-12-19T01:10:03;52.60;;;29.77;;
40745;SDS011;26454;51.164;4.488;2022-12-19T01:12:30;53.45;;;29.35;;
40745;SDS011;26454;51.164;4.488;2022-12-19T01:15:12;58.22;;;28.38;;
40745;SDS011;26454;51.164;4.488;2022-12-19T01:17:39;52.75;;;29.23;;
40745;SDS011;26454;51.164;4.488;2022-12-19T01:20:05;63.75;;;32.38;;
40745;SDS011;26454;51.164;4.488;2022-12-19T01:22:31;66.25;;;33.13;;
40745;SDS011;26454;51.164;4.488;2022-12-19T01:24:57;54.85;;;31.55;;
40745;SDS011;26454;51.164;4.488;2022-12-19T01:27:23;52.15;;;29.75;;
40745;SDS011;26454;51.164;4.488;2022-12-19T01:29:49;66.85;;;32.10;;
40745;SDS011;26454;51.164;4.488;2022-12-19T01:32:15;58.13;;;28.90;;
40745;SDS011;26454;51.164;4.488;2022-12-19T01:34:41;57.50;;;28.38;;
40745;SDS011;26454;51.164;4.488;2022-12-19T01:37:07;50.97;;;27.27;;
40745;SDS011;26454;51.164;4.488;2022-12-19T01:39:33;58.35;;;29.63;;
40745;SDS011;26454;51.164;4.488;2022-12-19T01:42:00;55.10;;;28.63;;
40745;SDS011;26454;51.164;4.488;2022-12-19T01:44:26;50.95;;;30.65;;
40745;SDS011;26454;51.164;4.488;2022-12-19T01:46:53;58.08;;;28.85;;
40745;SDS011;26454;51.164;4.488;2022-12-19T01:51:51;42.72;;;25.60;;
40745;SDS011;26454;51.164;4.488;2022-12-19T01:54:19;52.63;;;29.45;;
40745;SDS011;26454;51.164;4.488;2022-12-19T01:56:51;56.88;;;31.27;;
40745;SDS011;26454;51.164;4.488;2022-12-19T01:59:19;58.55;;;31.27;;
40745;SDS011;26454;51.164;4.488;2022-12-19T02:01:47;63.90;;;35.70;;
40745;SDS011;26454;51.164;4.488;2022-12-19T02:04:17;68.07;;;32.70;;
40745;SDS011;26454;51.164;4.488;2022-12-19T02:06:45;54.05;;;35.30;;
40745;SDS011;26454;51.164;4.488;2022-12-19T02:09:11;72.60;;;37.45;;
40745;SDS011;26454;51.164;4.488;2022-12-19T02:11:38;48.90;;;30.25;;
40745;SDS011;26454;51.164;4.488;2022-12-19T02:14:04;56.63;;;33.40;;
40745;SDS011;26454;51.164;4.488;2022-12-19T02:21:50;42.25;;;26.63;;
40745;SDS011;26454;51.164;4.488;2022-12-19T02:24:28;54.40;;;29.92;;
40745;SDS011;26454;51.164;4.488;2022-12-19T02:34:49;41.05;;;25.60;;
40745;SDS011;26454;51.164;4.488;2022-12-19T02:37:27;42.50;;;24.85;;
40745;SDS011;26454;51.164;4.488;2022-12-19T02:42:34;35.65;;;23.95;;
40745;SDS011;26454;51.164;4.488;2022-12-19T02:45:04;30.73;;;20.85;;
40745;SDS011;26454;51.164;4.488;2022-12-19T02:47:31;36.83;;;24.20;;
40745;SDS011;26454;51.164;4.488;2022-12-19T02:49:58;34.60;;;23.42;;
40745;SDS011;26454;51.164;4.488;2022-12-19T02:54:52;34.35;;;29.50;;
40745;SDS011;26454;51.164;4.488;2022-12-19T02:58:04;34.35;;;29.10;;
40745;SDS011;26454;51.164;4.488;2022-12-19T03:05:14;33.05;;;20.00;;
40745;SDS011;26454;51.164;4.488;2022-12-19T03:13:40;31.38;;;21.73;;
40745;SDS011;26454;51.164;4.488;2022-12-19T03:15:47;28.25;;;19.00;;
40745;SDS011;26454;51.164;4.488;2022-12-19T03:18:13;29.35;;;19.75;;
40745;SDS011;26454;51.164;4.488;2022-12-19T03:23:09;26.35;;;20.65;;
40745;SDS011;26454;51.164;4.488;2022-12-19T03:25:35;25.80;;;18.77;;
40745;SDS011;26454;51.164;4.488;2022-12-19T03:28:02;29.23;;;21.38;;
40745;SDS011;26454;51.164;4.488;2022-12-19T03:30:30;29.35;;;20.17;;
40745;SDS011;26454;51.164;4.488;2022-12-19T03:32:57;26.88;;;18.88;;
40745;SDS011;26454;51.164;4.488;2022-12-19T03:35:25;35.15;;;22.25;;
40745;SDS011;26454;51.164;4.488;2022-12-19T03:37:52;30.80;;;20.02;;
40745;SDS011;26454;51.164;4.488;2022-12-19T03:40:23;28.58;;;18.63;;
40745;SDS011;26454;51.164;4.488;2022-12-19T03:42:51;31.98;;;20.88;;
40745;SDS011;26454;51.164;4.488;2022-12-19T03:48:08;28.50;;;20.77;;
40745;SDS011;26454;51.164;4.488;2022-12-19T03:50:40;29.83;;;20.40;;
40745;SDS011;26454;51.164;4.488;2022-12-19T03:55:46;31.42;;;20.42;;
40745;SDS011;26454;51.164;4.488;2022-12-19T03:58:18;31.48;;;21.63;;
40745;SDS011;26454;51.164;4.488;2022-12-19T04:00:46;29.27;;;19.55;;
40745;SDS011;26454;51.164;4.488;2022-12-19T04:03:14;28.80;;;22.63;;
40745;SDS011;26454;51.164;4.488;2022-12-19T04:05:42;29.27;;;19.73;;
40745;SDS011;26454;51.164;4.488;2022-12-19T04:08:09;27.00;;;23.52;;
40745;SDS011;26454;51.164;4.488;2022-12-19T04:10:45;29.55;;;20.08;;
40745;SDS011;26454;51.164;4.488;2022-12-19T04:13:12;24.63;;;18.02;;
40745;SDS011;26454;51.164;4.488;2022-12-19T04:15:51;29.40;;;21.63;;
40745;SDS011;26454;51.164;4.488;2022-12-19T04:18:18;25.85;;;18.73;;
40745;SDS011;26454;51.164;4.488;2022-12-19T04:20:49;23.98;;;17.98;;
40745;SDS011;26454;51.164;4.488;2022-12-19T04:23:29;26.95;;;22.48;;
40745;SDS011;26454;51.164;4.488;2022-12-19T04:25:56;29.02;;;22.23;;
40745;SDS011;26454;51.164;4.488;2022-12-19T04:28:26;26.70;;;23.60;;
40745;SDS011;26454;51.164;4.488;2022-12-19T04:30:56;29.40;;;22.90;;
40745;SDS011;26454;51.164;4.488;2022-12-19T04:33:22;22.27;;;17.83;;
40745;SDS011;26454;51.164;4.488;2022-12-19T04:35:48;22.05;;;15.85;;
40745;SDS011;26454;51.164;4.488;2022-12-19T04:38:14;36.05;;;32.95;;
40745;SDS011;26454;51.164;4.488;2022-12-19T04:40:40;22.60;;;17.13;;
40745;SDS011;26454;51.164;4.488;2022-12-19T04:43:06;22.85;;;17.80;;
40745;SDS011;26454;51.164;4.488;2022-12-19T04:45:33;23.50;;;18.30;;
40745;SDS011;26454;51.164;4.488;2022-12-19T04:47:59;24.20;;;21.77;;
40745;SDS011;26454;51.164;4.488;2022-12-19T04:50:25;19.88;;;15.27;;
40745;SDS011;26454;51.164;4.488;2022-12-19T04:52:51;22.95;;;16.60;;
40745;SDS011;26454;51.164;4.488;2022-12-19T04:55:17;19.65;;;17.08;;
40745;SDS011;26454;51.164;4.488;2022-12-19T04:57:44;20.65;;;18.05;;
40745;SDS011;26454;51.164;4.488;2022-12-19T05:00:10;22.80;;;17.95;;
40745;SDS011;26454;51.164;4.488;2022-12-19T05:02:37;22.60;;;19.92;;
40745;SDS011;26454;51.164;4.488;2022-12-19T05:05:03;21.92;;;15.82;;
40745;SDS011;26454;51.164;4.488;2022-12-19T05:07:30;21.10;;;15.20;;
40745;SDS011;26454;51.164;4.488;2022-12-19T05:09:56;21.15;;;14.57;;
40745;SDS011;26454;51.164;4.488;2022-12-19T05:12:23;16.33;;;14.57;;
40745;SDS011;26454;51.164;4.488;2022-12-19T05:14:50;30.45;;;27.92;;
40745;SDS011;26454;51.164;4.488;2022-12-19T05:17:17;23.63;;;16.70;;
40745;SDS011;26454;51.164;4.488;2022-12-19T05:19:43;23.38;;;20.42;;
40745;SDS011;26454;51.164;4.488;2022-12-19T05:22:09;22.98;;;20.90;;
40745;SDS011;26454;51.164;4.488;2022-12-19T05:24:35;46.58;;;43.17;;
40745;SDS011;26454;51.164;4.488;2022-12-19T05:27:01;26.13;;;23.60;;
40745;SDS011;26454;51.164;4.488;2022-12-19T05:29:27;25.75;;;23.35;;
40745;SDS011;26454;51.164;4.488;2022-12-19T05:31:53;20.27;;;16.85;;
40745;SDS011;26454;51.164;4.488;2022-12-19T05:34:19;35.45;;;32.78;;
40745;SDS011;26454;51.164;4.488;2022-12-19T05:36:45;17.58;;;15.25;;
40745;SDS011;26454;51.164;4.488;2022-12-19T05:39:11;31.95;;;29.08;;
40745;SDS011;26454;51.164;4.488;2022-12-19T05:41:37;40.35;;;37.30;;
40745;SDS011;26454;51.164;4.488;2022-12-19T05:44:03;19.02;;;16.20;;
40745;SDS011;26454;51.164;4.488;2022-12-19T05:46:29;40.08;;;37.10;;
40745;SDS011;26454;51.164;4.488;2022-12-19T05:48:55;24.75;;;22.48;;
40745;SDS011;26454;51.164;4.488;2022-12-19T05:51:21;28.50;;;26.33;;
40745;SDS011;26454;51.164;4.488;2022-12-19T05:53:48;18.00;;;14.90;;
40745;SDS011;26454;51.164;4.488;2022-12-19T05:56:15;56.22;;;52.42;;
40745;SDS011;26454;51.164;4.488;2022-12-19T05:58:41;15.55;;;13.00;;
40745;SDS011;26454;51.164;4.488;2022-12-19T06:01:08;29.08;;;26.77;;
40745;SDS011;26454;51.164;4.488;2022-12-19T06:03:36;28.75;;;26.67;;
40745;SDS011;26454;51.164;4.488;2022-12-19T06:06:03;14.98;;;13.45;;
40745;SDS011;26454;51.164;4.488;2022-12-19T06:08:29;28.20;;;25.80;;
40745;SDS011;26454;51.164;4.488;2022-12-19T06:10:57;21.95;;;19.98;;
40745;SDS011;26454;51.164;4.488;2022-12-19T06:13:24;21.98;;;14.30;;
40745;SDS011;26454;51.164;4.488;2022-12-19T06:15:55;35.47;;;32.72;;
40745;SDS011;26454;51.164;4.488;2022-12-19T06:18:21;20.33;;;18.33;;
40745;SDS011;26454;51.164;4.488;2022-12-19T06:21:03;19.08;;;17.27;;
40745;SDS011;26454;51.164;4.488;2022-12-19T06:23:31;12.70;;;11.43;;
40745;SDS011;26454;51.164;4.488;2022-12-19T06:25:58;15.52;;;13.38;;
40745;SDS011;26454;51.164;4.488;2022-12-19T06:28:25;13.10;;;10.98;;
40745;SDS011;26454;51.164;4.488;2022-12-19T06:30:51;13.07;;;11.77;;
40745;SDS011;26454;51.164;4.488;2022-12-19T06:33:17;48.00;;;44.70;;
40745;SDS011;26454;51.164;4.488;2022-12-19T06:35:44;15.85;;;14.27;;
40745;SDS011;26454;51.164;4.488;2022-12-19T06:38:10;12.60;;;11.18;;
40745;SDS011;26454;51.164;4.488;2022-12-19T06:40:43;13.38;;;11.25;;
40745;SDS011;26454;51.164;4.488;2022-12-19T06:43:28;13.40;;;10.30;;
40745;SDS011;26454;51.164;4.488;2022-12-19T06:45:55;11.38;;;10.32;;
40745;SDS011;26454;51.164;4.488;2022-12-19T06:48:22;14.05;;;10.18;;
40745;SDS011;26454;51.164;4.488;2022-12-19T06:50:48;14.93;;;12.77;;
40745;SDS011;26454;51.164;4.488;2022-12-19T06:53:14;12.93;;;11.60;;
40745;SDS011;26454;51.164;4.488;2022-12-19T06:55:40;13.50;;;9.93;;
40745;SDS011;26454;51.164;4.488;2022-12-19T06:58:06;12.60;;;11.50;;
40745;SDS011;26454;51.164;4.488;2022-12-19T07:00:34;10.30;;;9.32;;
40745;SDS011;26454;51.164;4.488;2022-12-19T07:03:00;11.13;;;9.55;;
40745;SDS011;26454;51.164;4.488;2022-12-19T07:05:27;17.70;;;16.40;;
40745;SDS011;26454;51.164;4.488;2022-12-19T07:07:53;11.10;;;8.38;;
40745;SDS011;26454;51.164;4.488;2022-12-19T07:10:20;10.50;;;9.48;;
40745;SDS011;26454;51.164;4.488;2022-12-19T07:12:46;10.85;;;8.38;;
40745;SDS011;26454;51.164;4.488;2022-12-19T07:15:12;13.85;;;10.70;;
40745;SDS011;26454;51.164;4.488;2022-12-19T07:17:39;8.50;;;7.63;;
40745;SDS011;26454;51.164;4.488;2022-12-19T07:20:07;11.23;;;8.80;;
40745;SDS011;26454;51.164;4.488;2022-12-19T07:22:35;9.27;;;7.55;;
40745;SDS011;26454;51.164;4.488;2022-12-19T07:25:01;8.63;;;6.97;;
40745;SDS011;26454;51.164;4.488;2022-12-19T07:27:28;11.45;;;7.05;;
40745;SDS011;26454;51.164;4.488;2022-12-19T07:29:59;7.57;;;6.88;;
40745;SDS011;26454;51.164;4.488;2022-12-19T07:32:25;7.78;;;6.65;;
40745;SDS011;26454;51.164;4.488;2022-12-19T07:34:51;8.93;;;7.68;;
40745;SDS011;26454;51.164;4.488;2022-12-19T07:37:17;7.90;;;6.90;;
40745;SDS011;26454;51.164;4.488;2022-12-19T07:39:43;6.95;;;5.95;;
40745;SDS011;26454;51.164;4.488;2022-12-19T07:42:09;7.95;;;6.72;;
40745;SDS011;26454;51.164;4.488;2022-12-19T07:44:39;10.98;;;6.80;;
40745;SDS011;26454;51.164;4.488;2022-12-19T07:47:05;9.00;;;6.57;;
40745;SDS011;26454;51.164;4.488;2022-12-19T07:49:32;9.43;;;6.70;;
40745;SDS011;26454;51.164;4.488;2022-12-19T07:51:58;9.52;;;7.20;;
40745;SDS011;26454;51.164;4.488;2022-12-19T07:54:24;9.35;;;6.35;;
40745;SDS011;26454;51.164;4.488;2022-12-19T07:56:51;9.15;;;6.35;;
40745;SDS011;26454;51.164;4.488;2022-12-19T07:59:17;8.57;;;6.43;;
40745;SDS011;26454;51.164;4.488;2022-12-19T08:01:43;10.05;;;7.32;;
40745;SDS011;26454;51.164;4.488;2022-12-19T08:04:09;7.80;;;6.63;;
40745;SDS011;26454;51.164;4.488;2022-12-19T08:06:35;7.10;;;6.32;;
40745;SDS011;26454;51.164;4.488;2022-12-19T08:09:01;9.02;;;8.13;;
40745;SDS011;26454;51.164;4.488;2022-12-19T08:11:27;7.25;;;6.45;;
40745;SDS011;26454;51.164;4.488;2022-12-19T08:14:05;7.68;;;6.28;;
40745;SDS011;26454;51.164;4.488;2022-12-19T08:16:31;10.30;;;6.15;;
40745;SDS011;26454;51.164;4.488;2022-12-19T08:18:58;8.50;;;5.68;;
40745;SDS011;26454;51.164;4.488;2022-12-19T08:21:24;6.30;;;5.68;;
40745;SDS011;26454;51.164;4.488;2022-12-19T08:23:50;11.05;;;6.57;;
40745;SDS011;26454;51.164;4.488;2022-12-19T08:26:17;7.80;;;5.78;;
40745;SDS011;26454;51.164;4.488;2022-12-19T08:28:50;8.55;;;7.32;;
40745;SDS011;26454;51.164;4.488;2022-12-19T08:31:17;7.50;;;6.78;;
40745;SDS011;26454;51.164;4.488;2022-12-19T08:33:44;7.35;;;5.20;;
40745;SDS011;26454;51.164;4.488;2022-12-19T08:36:12;11.30;;;6.30;;
40745;SDS011;26454;51.164;4.488;2022-12-19T08:38:38;7.57;;;6.35;;
40745;SDS011;26454;51.164;4.488;2022-12-19T08:41:05;14.63;;;5.55;;
40745;SDS011;26454;51.164;4.488;2022-12-19T08:43:31;7.40;;;5.53;;
40745;SDS011;26454;51.164;4.488;2022-12-19T08:45:57;9.50;;;5.82;;
40745;SDS011;26454;51.164;4.488;2022-12-19T08:48:24;7.82;;;6.40;;
40745;SDS011;26454;51.164;4.488;2022-12-19T08:50:56;7.05;;;5.85;;
40745;SDS011;26454;51.164;4.488;2022-12-19T08:53:23;9.35;;;6.13;;
40745;SDS011;26454;51.164;4.488;2022-12-19T08:55:57;7.60;;;5.28;;
40745;SDS011;26454;51.164;4.488;2022-12-19T08:58:24;8.20;;;6.47;;
40745;SDS011;26454;51.164;4.488;2022-12-19T09:00:50;6.10;;;5.47;;
40745;SDS011;26454;51.164;4.488;2022-12-19T09:03:20;8.20;;;6.45;;
40745;SDS011;26454;51.164;4.488;2022-12-19T09:05:52;7.85;;;6.47;;
40745;SDS011;26454;51.164;4.488;2022-12-19T09:08:19;7.03;;;5.97;;
40745;SDS011;26454;51.164;4.488;2022-12-19T09:10:45;5.55;;;5.03;;
40745;SDS011;26454;51.164;4.488;2022-12-19T09:13:13;11.50;;;8.88;;
40745;SDS011;26454;51.164;4.488;2022-12-19T09:15:39;7.70;;;4.85;;
40745;SDS011;26454;51.164;4.488;2022-12-19T09:18:06;8.43;;;5.57;;
40745;SDS011;26454;51.164;4.488;2022-12-19T09:20:33;8.68;;;5.60;;
40745;SDS011;26454;51.164;4.488;2022-12-19T09:23:00;8.55;;;6.30;;
40745;SDS011;26454;51.164;4.488;2022-12-19T09:25:27;10.23;;;7.53;;
40745;SDS011;26454;51.164;4.488;2022-12-19T09:27:53;6.20;;;5.38;;
40745;SDS011;26454;51.164;4.488;2022-12-19T09:30:19;6.97;;;6.20;;
40745;SDS011;26454;51.164;4.488;2022-12-19T09:32:46;8.63;;;5.40;;
40745;SDS011;26454;51.164;4.488;2022-12-19T09:35:12;8.48;;;4.80;;
40745;SDS011;26454;51.164;4.488;2022-12-19T09:37:38;7.28;;;5.18;;
40745;SDS011;26454;51.164;4.488;2022-12-19T09:40:05;6.63;;;5.32;;
40745;SDS011;26454;51.164;4.488;2022-12-19T09:47:46;6.00;;;5.43;;
40745;SDS011;26454;51.164;4.488;2022-12-19T09:53:12;6.28;;;5.50;;
40745;SDS011;26454;51.164;4.488;2022-12-19T09:55:40;7.70;;;5.63;;
40745;SDS011;26454;51.164;4.488;2022-12-19T10:00:38;6.45;;;5.82;;
40745;SDS011;26454;51.164;4.488;2022-12-19T10:03:10;8.13;;;7.25;;
40745;SDS011;26454;51.164;4.488;2022-12-19T10:05:46;9.85;;;7.90;;
40745;SDS011;26454;51.164;4.488;2022-12-19T10:08:15;15.00;;;13.70;;
40745;SDS011;26454;51.164;4.488;2022-12-19T10:13:35;9.27;;;7.70;;
40745;SDS011;26454;51.164;4.488;2022-12-19T10:33:56;10.65;;;8.38;;
40745;SDS011;26454;51.164;4.488;2022-12-19T10:36:24;9.60;;;7.75;;
40745;SDS011;26454;51.164;4.488;2022-12-19T10:41:18;8.68;;;7.75;;
40745;SDS011;26454;51.164;4.488;2022-12-19T10:51:39;7.65;;;6.13;;
40745;SDS011;26454;51.164;4.488;2022-12-19T10:54:06;7.32;;;5.57;;
40745;SDS011;26454;51.164;4.488;2022-12-19T10:56:33;8.13;;;5.55;;
40745;SDS011;26454;51.164;4.488;2022-12-19T10:59:00;13.18;;;7.20;;
40745;SDS011;26454;51.164;4.488;2022-12-19T11:01:27;7.82;;;5.90;;
40745;SDS011;26454;51.164;4.488;2022-12-19T11:04:13;7.75;;;5.85;;
40745;SDS011;26454;51.164;4.488;2022-12-19T11:06:52;11.27;;;5.40;;
40745;SDS011;26454;51.164;4.488;2022-12-19T11:09:39;11.02;;;5.60;;
40745;SDS011;26454;51.164;4.488;2022-12-19T11:14:36;5.90;;;4.70;;
40745;SDS011;26454;51.164;4.488;2022-12-19T11:17:03;7.05;;;5.35;;
40745;SDS011;26454;51.164;4.488;2022-12-19T11:19:32;7.68;;;4.50;;
40745;SDS011;26454;51.164;4.488;2022-12-19T11:21:59;4.82;;;4.32;;
40745;SDS011;26454;51.164;4.488;2022-12-19T11:24:28;5.07;;;4.57;;
40745;SDS011;26454;51.164;4.488;2022-12-19T11:26:56;12.40;;;7.25;;
40745;SDS011;26454;51.164;4.488;2022-12-19T11:29:23;6.03;;;5.40;;
40745;SDS011;26454;51.164;4.488;2022-12-19T11:31:55;5.00;;;4.32;;
40745;SDS011;26454;51.164;4.488;2022-12-19T11:34:22;5.80;;;3.72;;
40745;SDS011;26454;51.164;4.488;2022-12-19T11:36:53;7.18;;;5.97;;
40745;SDS011;26454;51.164;4.488;2022-12-19T11:42:07;6.93;;;3.85;;
40745;SDS011;26454;51.164;4.488;2022-12-19T11:44:43;5.88;;;3.90;;
40745;SDS011;26454;51.164;4.488;2022-12-19T11:47:47;7.97;;;4.72;;
40745;SDS011;26454;51.164;4.488;2022-12-19T11:52:57;5.82;;;3.75;;
40745;SDS011;26454;51.164;4.488;2022-12-19T11:55:49;7.35;;;4.22;;
40745;SDS011;26454;51.164;4.488;2022-12-19T11:58:21;5.75;;;3.42;;
40745;SDS011;26454;51.164;4.488;2022-12-19T12:00:50;3.60;;;3.13;;
40745;SDS011;26454;51.164;4.488;2022-12-19T12:03:23;5.15;;;3.47;;
40745;SDS011;26454;51.164;4.488;2022-12-19T12:05:54;4.18;;;3.78;;
40745;SDS011;26454;51.164;4.488;2022-12-19T12:08:43;5.10;;;3.90;;
40745;SDS011;26454;51.164;4.488;2022-12-19T12:11:35;6.82;;;3.78;;
40745;SDS011;26454;51.164;4.488;2022-12-19T12:14:06;7.38;;;3.78;;
40745;SDS011;26454;51.164;4.488;2022-12-19T12:27:29;4.45;;;3.30;;
40745;SDS011;26454;51.164;4.488;2022-12-19T12:30:10;4.22;;;3.70;;
40745;SDS011;26454;51.164;4.488;2022-12-19T12:40:21;5.38;;;4.30;;
40745;SDS011;26454;51.164;4.488;2022-12-19T12:45:38;4.22;;;3.65;;
40745;SDS011;26454;51.164;4.488;2022-12-19T12:48:26;5.57;;;3.13;;
40745;SDS011;26454;51.164;4.488;2022-12-19T12:50:51;4.57;;;3.67;;
40745;SDS011;26454;51.164;4.488;2022-12-19T12:53:18;6.70;;;3.58;;
40745;SDS011;26454;51.164;4.488;2022-12-19T12:55:46;5.75;;;3.47;;
40745;SDS011;26454;51.164;4.488;2022-12-19T13:03:58;4.95;;;3.55;;
40745;SDS011;26454;51.164;4.488;2022-12-19T13:11:44;8.13;;;3.90;;
40745;SDS011;26454;51.164;4.488;2022-12-19T13:17:03;6.05;;;3.70;;
40745;SDS011;26454;51.164;4.488;2022-12-19T13:19:32;6.82;;;3.08;;
40745;SDS011;26454;51.164;4.488;2022-12-19T13:27:26;4.20;;;3.80;;
40745;SDS011;26454;51.164;4.488;2022-12-19T13:37:45;8.05;;;4.53;;
40745;SDS011;26454;51.164;4.488;2022-12-19T13:40:27;5.57;;;3.42;;
40745;SDS011;26454;51.164;4.488;2022-12-19T13:43:10;5.35;;;3.90;;
40745;SDS011;26454;51.164;4.488;2022-12-19T13:51:08;7.03;;;4.43;;
40745;SDS011;26454;51.164;4.488;2022-12-19T13:53:34;6.10;;;3.88;;
40745;SDS011;26454;51.164;4.488;2022-12-19T13:56:02;5.32;;;4.10;;
40745;SDS011;26454;51.164;4.488;2022-12-19T13:58:30;6.50;;;4.07;;
40745;SDS011;26454;51.164;4.488;2022-12-19T14:00:59;4.28;;;3.88;;
40745;SDS011;26454;51.164;4.488;2022-12-19T14:03:36;6.32;;;4.93;;
40745;SDS011;26454;51.164;4.488;2022-12-19T14:06:07;4.88;;;4.38;;
40745;SDS011;26454;51.164;4.488;2022-12-19T14:08:35;5.40;;;4.88;;
40745;SDS011;26454;51.164;4.488;2022-12-19T14:11:02;4.50;;;3.08;;
40745;SDS011;26454;51.164;4.488;2022-12-19T14:13:41;4.63;;;4.00;;
40745;SDS011;26454;51.164;4.488;2022-12-19T14:16:25;3.90;;;3.50;;
40745;SDS011;26454;51.164;4.488;2022-12-19T14:18:51;4.53;;;3.85;;
40745;SDS011;26454;51.164;4.488;2022-12-19T14:21:21;4.78;;;3.95;;
40745;SDS011;26454;51.164;4.488;2022-12-19T14:23:48;5.82;;;3.78;;
40745;SDS011;26454;51.164;4.488;2022-12-19T14:28:45;8.83;;;3.43;;
40745;SDS011;26454;51.164;4.488;2022-12-19T14:33:43;3.90;;;3.20;;
40745;SDS011;26454;51.164;4.488;2022-12-19T14:36:10;5.38;;;3.03;;
40745;SDS011;26454;51.164;4.488;2022-12-19T14:38:36;3.78;;;3.10;;
40745;SDS011;26454;51.164;4.488;2022-12-19T14:41:03;4.20;;;3.30;;
40745;SDS011;26454;51.164;4.488;2022-12-19T14:43:30;5.85;;;3.70;;
40745;SDS011;26454;51.164;4.488;2022-12-19T14:48:45;5.78;;;3.40;;
40745;SDS011;26454;51.164;4.488;2022-12-19T14:51:12;8.52;;;3.42;;
40745;SDS011;26454;51.164;4.488;2022-12-19T14:53:39;4.07;;;3.30;;
40745;SDS011;26454;51.164;4.488;2022-12-19T14:56:09;7.75;;;3.70;;
40745;SDS011;26454;51.164;4.488;2022-12-19T14:58:36;4.93;;;4.53;;
40745;SDS011;26454;51.164;4.488;2022-12-19T15:01:04;4.32;;;3.50;;
40745;SDS011;26454;51.164;4.488;2022-12-19T15:03:33;4.78;;;3.17;;
40745;SDS011;26454;51.164;4.488;2022-12-19T15:08:29;5.95;;;3.35;;
40745;SDS011;26454;51.164;4.488;2022-12-19T15:11:00;5.38;;;4.22;;
40745;SDS011;26454;51.164;4.488;2022-12-19T15:13:53;4.70;;;3.53;;
40745;SDS011;26454;51.164;4.488;2022-12-19T15:16:23;5.07;;;3.78;;
40745;SDS011;26454;51.164;4.488;2022-12-19T15:18:49;6.53;;;4.70;;
40745;SDS011;26454;51.164;4.488;2022-12-19T15:21:17;5.38;;;3.35;;
40745;SDS011;26454;51.164;4.488;2022-12-19T15:23:43;7.05;;;4.05;;
40745;SDS011;26454;51.164;4.488;2022-12-19T15:26:14;5.28;;;4.07;;
40745;SDS011;26454;51.164;4.488;2022-12-19T15:31:12;7.70;;;4.40;;
40745;SDS011;26454;51.164;4.488;2022-12-19T15:33:43;6.72;;;3.58;;
40745;SDS011;26454;51.164;4.488;2022-12-19T15:36:09;6.53;;;3.40;;
40745;SDS011;26454;51.164;4.488;2022-12-19T15:38:35;6.47;;;3.45;;
40745;SDS011;26454;51.164;4.488;2022-12-19T15:41:01;9.05;;;4.15;;
40745;SDS011;26454;51.164;4.488;2022-12-19T15:43:27;4.65;;;3.38;;
40745;SDS011;26454;51.164;4.488;2022-12-19T15:45:56;5.22;;;4.03;;
40745;SDS011;26454;51.164;4.488;2022-12-19T15:48:22;7.30;;;4.15;;
40745;SDS011;26454;51.164;4.488;2022-12-19T15:50:49;8.93;;;4.78;;
40745;SDS011;26454;51.164;4.488;2022-12-19T15:53:19;8.07;;;4.07;;
40745;SDS011;26454;51.164;4.488;2022-12-19T15:55:46;7.65;;;4.20;;
40745;SDS011;26454;51.164;4.488;2022-12-19T15:58:13;6.53;;;4.78;;
40745;SDS011;26454;51.164;4.488;2022-12-19T16:00:48;5.32;;;4.25;;
40745;SDS011;26454;51.164;4.488;2022-12-19T16:03:15;6.05;;;3.67;;
40745;SDS011;26454;51.164;4.488;2022-12-19T16:05:41;12.35;;;7.32;;
40745;SDS011;26454;51.164;4.488;2022-12-19T16:08:15;7.78;;;3.88;;
40745;SDS011;26454;51.164;4.488;2022-12-19T16:10:41;5.72;;;3.60;;
40745;SDS011;26454;51.164;4.488;2022-12-19T16:13:19;6.78;;;3.95;;
40745;SDS011;26454;51.164;4.488;2022-12-19T16:15:45;5.22;;;3.60;;
40745;SDS011;26454;51.164;4.488;2022-12-19T16:18:12;4.35;;;3.25;;
40745;SDS011;26454;51.164;4.488;2022-12-19T16:20:39;4.55;;;3.90;;
40745;SDS011;26454;51.164;4.488;2022-12-19T16:23:06;6.25;;;3.78;;
40745;SDS011;26454;51.164;4.488;2022-12-19T16:25:34;4.57;;;3.92;;
40745;SDS011;26454;51.164;4.488;2022-12-19T16:28:03;6.05;;;3.75;;
40745;SDS011;26454;51.164;4.488;2022-12-19T16:30:31;5.88;;;4.15;;
40745;SDS011;26454;51.164;4.488;2022-12-19T16:32:57;8.60;;;4.07;;
40745;SDS011;26454;51.164;4.488;2022-12-19T16:35:24;6.22;;;4.45;;
40745;SDS011;26454;51.164;4.488;2022-12-19T16:37:51;5.32;;;4.45;;
40745;SDS011;26454;51.164;4.488;2022-12-19T16:40:18;4.50;;;4.07;;
40745;SDS011;26454;51.164;4.488;2022-12-19T16:42:44;6.25;;;3.60;;
40745;SDS011;26454;51.164;4.488;2022-12-19T16:45:16;5.20;;;3.30;;
40745;SDS011;26454;51.164;4.488;2022-12-19T16:47:44;5.90;;;4.07;;
40745;SDS011;26454;51.164;4.488;2022-12-19T16:50:24;6.28;;;3.90;;
40745;SDS011;26454;51.164;4.488;2022-12-19T16:52:51;5.15;;;4.18;;
40745;SDS011;26454;51.164;4.488;2022-12-19T16:55:17;5.90;;;3.85;;
40745;SDS011;26454;51.164;4.488;2022-12-19T16:57:44;5.40;;;4.13;;
40745;SDS011;26454;51.164;4.488;2022-12-19T17:00:16;6.60;;;4.50;;
40745;SDS011;26454;51.164;4.488;2022-12-19T17:05:16;6.15;;;4.00;;
40745;SDS011;26454;51.164;4.488;2022-12-19T17:07:42;5.93;;;4.03;;
40745;SDS011;26454;51.164;4.488;2022-12-19T17:10:09;5.18;;;4.43;;
40745;SDS011;26454;51.164;4.488;2022-12-19T17:12:35;5.35;;;4.35;;
40745;SDS011;26454;51.164;4.488;2022-12-19T17:15:03;4.45;;;4.03;;
40745;SDS011;26454;51.164;4.488;2022-12-19T17:17:30;9.50;;;4.70;;
40745;SDS011;26454;51.164;4.488;2022-12-19T17:19:56;5.63;;;4.22;;
40745;SDS011;26454;51.164;4.488;2022-12-19T17:22:23;6.55;;;4.78;;
40745;SDS011;26454;51.164;4.488;2022-12-19T17:24:50;5.85;;;4.70;;